Time;durP1;ratioP1;P1;durP2;ratioP2;P2;SDS_P1;SDS_P2;PMS_P1;PMS_P2;Temp;Humidity;BMP_temperature;BMP_pressure;BME280_temperature;BME280_humidity;BME280_pressure;Samples;Min_cycle;Max_cycle;Signal;HPM_P1;HPM_P2
2020/12/29 00:04:30;;;;;;;6.43;3.93;;;;;;;7.87;59.80;96264.97;251630;1132;115036;-67
2020/12/29 00:09:33;;;;;;;8.83;4.53;;;;;;;7.83;60.02;96256.48;252058;1132;115030;-66
2020/12/29 00:14:35;;;;;;;9.00;4.47;;;;;;;7.79;60.07;96255.12;251876;1134;114483;-65
2020/12/29 00:19:38;;;;;;;5.72;3.17;;;;;;;7.84;60.55;96225.55;252048;1135;115133;-63
2020/12/29 00:24:40;;;;;;;5.40;3.83;;;;;;;7.90;60.34;96224.96;251906;1134;114593;-63
2020/12/29 00:29:42;;;;;;;6.60;3.33;;;;;;;7.99;60.88;96228.55;252072;1134;114949;-62
2020/12/29 00:34:49;;;;;;;6.50;3.13;;;;;;;8.09;61.27;96224.03;251961;1134;114756;-64
2020/12/29 00:39:51;;;;;;;5.97;2.73;;;;;;;8.18;60.46;96209.86;248137;1132;115216;-67
2020/12/29 00:44:54;;;;;;;4.85;2.77;;;;;;;8.24;60.80;96190.73;252082;1133;115134;-63
2020/12/29 00:49:56;;;;;;;5.23;3.10;;;;;;;8.35;60.69;96175.59;249394;1133;114743;-66
2020/12/29 00:54:59;;;;;;;3.50;2.90;;;;;;;8.43;60.69;96173.88;251910;1132;114500;-65
2020/12/29 01:00:08;;;;;;;3.50;2.50;;;;;;;8.54;60.78;96167.52;251827;1132;115267;-64
2020/12/29 01:05:26;;;;;;;3.40;2.00;;;;;;;8.63;60.79;96157.81;251760;1133;114567;-67
2020/12/29 01:10:29;;;;;;;3.12;2.20;;;;;;;8.77;60.79;96141.34;251808;1133;114567;-68
2020/12/29 01:16:05;;;;;;;2.93;2.20;;;;;;;8.89;61.26;96140.08;251686;1133;114305;-65
2020/12/29 01:21:09;;;;;;;4.15;2.60;;;;;;;8.99;60.49;96147.94;251851;1133;115595;-66
2020/12/29 01:26:21;;;;;;;3.37;2.50;;;;;;;9.03;60.38;96136.02;251919;1132;114688;-67
2020/12/29 01:31:27;;;;;;;4.37;2.43;;;;;;;9.04;60.51;96124.44;251753;1134;114178;-66
2020/12/29 01:36:30;;;;;;;3.72;2.40;;;;;;;9.07;60.09;96110.86;251908;1137;115748;-63
2020/12/29 01:41:35;;;;;;;4.23;2.60;;;;;;;9.11;60.24;96104.25;251882;1134;114736;-66
2020/12/29 01:46:45;;;;;;;4.20;2.70;;;;;;;9.10;60.27;96109.69;251904;1135;115426;-65
2020/12/29 01:51:48;;;;;;;4.20;3.13;;;;;;;9.07;60.08;96100.25;251712;1132;114577;-72
2020/12/29 01:56:55;;;;;;;4.60;2.80;;;;;;;9.07;59.95;96110.00;251691;1133;114728;-67
2020/12/29 02:01:58;;;;;;;5.72;3.17;;;;;;;9.04;59.94;96110.34;251723;1135;114608;-66
2020/12/29 02:07:01;;;;;;;5.60;3.13;;;;;;;9.02;59.92;96107.02;251615;1137;114578;-66
2020/12/29 02:12:27;;;;;;;5.57;3.50;;;;;;;9.01;60.07;96116.80;251715;1135;114862;-66
2020/12/29 02:17:30;;;;;;;3.93;2.67;;;;;;;8.99;59.86;96098.37;251889;1134;114762;-66
2020/12/29 02:22:32;;;;;;;3.23;2.80;;;;;;;9.01;59.89;96111.48;251687;1132;114602;-66
2020/12/29 02:27:49;;;;;;;3.60;2.60;;;;;;;9.02;59.86;96078.66;251144;1132;114429;-67
2020/12/29 02:32:52;;;;;;;3.13;2.40;;;;;;;9.02;60.36;96083.14;251525;1132;114792;-65
2020/12/29 02:37:54;;;;;;;3.63;2.33;;;;;;;9.05;60.07;96072.22;248637;1135;114796;-66
2020/12/29 02:42:57;;;;;;;4.85;2.55;;;;;;;9.07;60.09;96059.60;250291;1134;114605;-67
2020/12/29 02:47:59;;;;;;;2.93;2.57;;;;;;;9.10;60.06;96056.64;251701;1133;114651;-65
2020/12/29 02:53:02;;;;;;;3.40;2.20;;;;;;;9.09;59.90;96050.50;251789;1132;115245;-66
2020/12/29 02:58:04;;;;;;;3.07;2.10;;;;;;;9.12;59.99;96065.28;251882;1135;114802;-65
2020/12/29 03:03:07;;;;;;;2.70;2.10;;;;;;;9.11;60.21;96071.59;251992;1132;114979;-64
2020/12/29 03:08:10;;;;;;;2.40;2.03;;;;;;;9.10;59.87;96075.20;251819;1132;114795;-67
2020/12/29 03:13:13;;;;;;;4.63;2.37;;;;;;;9.12;60.22;96075.89;249739;1132;114834;-69
2020/12/29 03:18:16;;;;;;;3.52;2.30;;;;;;;9.12;59.92;96055.50;251545;1135;114576;-72
2020/12/29 03:23:20;;;;;;;4.08;2.70;;;;;;;9.12;59.88;96022.83;251677;1134;114917;-71
2020/12/29 03:28:22;;;;;;;5.47;2.60;;;;;;;9.10;59.93;96028.28;251788;1133;115279;-71
2020/12/29 03:33:32;;;;;;;8.43;4.00;;;;;;;9.07;59.63;96009.20;250972;1134;114362;-74
2020/12/29 03:38:56;;;;;;;12.80;4.90;;;;;;;9.07;60.49;95998.59;250447;1132;114970;-76
2020/12/29 03:44:01;;;;;;;6.05;2.58;;;;;;;9.05;59.78;95982.85;251666;1132;114944;-78
2020/12/29 03:49:45;;;;;;;3.58;1.80;;;;;;;9.06;59.68;95981.02;251913;1132;115084;-75
2020/12/29 03:55:06;;;;;;;;;;;;;;;;;;;;;
2020/12/29 04:00:13;;;;;;;1.10;0.87;;;;;;;9.07;59.75;95972.06;252180;1133;114672;-73
2020/12/29 04:05:21;;;;;;;2.00;0.60;;;;;;;9.06;59.88;95973.07;249739;1134;115237;-74
2020/12/29 04:10:31;;;;;;;0.73;0.60;;;;;;;9.05;59.99;95964.28;250018;1132;114875;-69
2020/12/29 04:15:33;;;;;;;0.30;0.30;;;;;;;9.05;60.28;95958.16;251471;1134;115203;-70
2020/12/29 04:20:36;;;;;;;2.20;0.50;;;;;;;9.05;59.89;95974.90;252063;1132;114781;-71
2020/12/29 04:25:38;;;;;;;0.80;0.50;;;;;;;9.07;60.20;95974.72;251874;1132;117284;-72
2020/12/29 04:30:43;;;;;;;0.47;0.40;;;;;;;9.07;60.01;95977.37;252020;1132;115208;-70
2020/12/29 04:35:45;;;;;;;0.65;0.53;;;;;;;9.09;60.06;95981.53;251773;1135;114450;-70
2020/12/29 04:40:48;;;;;;;0.77;0.47;;;;;;;9.10;59.94;95998.28;251902;1132;115628;-68
2020/12/29 04:45:50;;;;;;;0.63;0.43;;;;;;;9.11;60.00;95992.00;251697;1133;114340;-68
2020/12/29 04:51:00;;;;;;;0.53;0.30;;;;;;;9.13;60.45;95988.17;251962;1132;114543;-67
2020/12/29 04:56:08;;;;;;;0.63;0.50;;;;;;;9.14;59.65;95979.24;251933;1133;114791;-71
2020/12/29 05:01:25;;;;;;;;;;;;;;;;;;;;;
2020/12/29 05:06:44;;;;;;;1.53;0.93;;;;;;;9.17;59.80;95983.38;251763;1132;115340;-68
2020/12/29 05:11:51;;;;;;;2.57;0.97;;;;;;;9.18;59.76;96009.76;252119;1132;115018;-67
2020/12/29 05:16:56;;;;;;;1.25;0.80;;;;;;;9.18;59.79;96017.72;252157;1132;114629;-66
2020/12/29 05:22:10;;;;;;;0.67;0.60;;;;;;;9.19;60.01;96023.84;251996;1132;114632;-68
2020/12/29 05:27:35;;;;;;;1.25;0.70;;;;;;;9.18;59.96;96023.02;252088;1134;114734;-65
2020/12/29 05:32:38;;;;;;;0.93;0.67;;;;;;;9.16;59.52;96034.78;252070;1132;114637;-67
2020/12/29 05:37:42;;;;;;;1.62;0.55;;;;;;;9.13;60.27;96043.88;251932;1133;114923;-66
2020/12/29 05:42:48;;;;;;;1.50;0.70;;;;;;;9.13;59.38;96043.88;252008;1133;114737;-64
2020/12/29 05:47:55;;;;;;;1.03;0.90;;;;;;;9.13;59.80;96045.71;251852;1133;114753;-66
2020/12/29 05:53:04;;;;;;;1.25;0.60;;;;;;;9.08;59.84;96059.46;251962;1134;114553;-66
2020/12/29 05:58:10;;;;;;;1.00;0.60;;;;;;;9.07;60.60;96068.42;252099;1142;114783;-66
2020/12/29 06:03:12;;;;;;;;;;;;;;;9.03;60.06;96077.66;252063;1134;114837;-66
2020/12/29 06:08:19;;;;;;;1.20;0.70;;;;;;;8.93;60.02;96084.91;252175;1133;103201;-69
2020/12/29 06:13:45;;;;;;;1.37;0.90;;;;;;;8.88;60.21;96089.86;252090;1132;115480;-66
2020/12/29 06:18:53;;;;;;;2.90;0.70;;;;;;;8.86;60.51;96107.74;251956;1132;114928;-67
2020/12/29 06:24:12;;;;;;;;;;;;;;;;;;;;;
2020/12/29 06:29:30;;;;;;;2.20;1.00;;;;;;;8.80;60.03;96116.31;251885;1134;114647;-67
2020/12/29 06:34:35;;;;;;;1.60;0.90;;;;;;;8.82;60.26;96141.70;251794;1132;114764;-67
2020/12/29 06:39:42;;;;;;;1.85;0.90;;;;;;;8.87;60.25;96159.81;252054;1137;114705;-66
2020/12/29 06:44:44;;;;;;;3.40;1.10;;;;;;;8.92;59.86;96174.25;252025;1132;114554;-67
2020/12/29 06:49:47;;;;;;;3.30;1.20;;;;;;;8.98;59.48;96186.06;251995;1134;114903;-68
2020/12/29 06:55:00;;;;;;;2.87;1.10;;;;;;;8.99;59.94;96214.25;251563;1134;114803;-68
2020/12/29 07:00:07;;;;;;;3.12;1.57;;;;;;;8.97;59.72;96237.45;251848;1135;114640;-68
2020/12/29 07:05:24;;;;;;;1.53;0.70;;;;;;;8.95;59.65;96260.64;251859;1132;114762;-66
2020/12/29 07:10:36;;;;;;;1.25;0.70;;;;;;;8.86;59.46;96288.89;250831;1132;114784;-69
2020/12/29 07:15:49;;;;;;;0.83;0.60;;;;;;;8.80;59.53;96324.00;251702;1134;114444;-66
2020/12/29 07:20:54;;;;;;;2.33;0.80;;;;;;;8.74;59.76;96369.67;251998;1134;114648;-66
2020/12/29 07:25:59;;;;;;;0.80;0.53;;;;;;;8.60;59.17;96392.22;251886;1133;114705;-67
2020/12/29 07:31:01;;;;;;;2.47;0.50;;;;;;;8.33;58.79;96439.89;251904;1134;114925;-67
2020/12/29 07:36:03;;;;;;;0.50;0.40;;;;;;;8.04;60.05;96457.52;251875;1134;114586;-66
2020/12/29 07:41:06;;;;;;;4.30;0.77;;;;;;;7.79;60.25;96480.15;251864;1134;115093;-66
2020/12/29 07:46:09;;;;;;;1.90;0.53;;;;;;;7.66;60.97;96494.66;251889;1133;115110;-66
2020/12/29 07:51:11;;;;;;;1.93;0.90;;;;;;;7.56;61.46;96507.88;252082;1131;115161;-66
2020/12/29 07:56:14;;;;;;;3.90;1.10;;;;;;;7.54;60.81;96517.76;252054;1136;114854;-66
2020/12/29 08:01:16;;;;;;;1.30;0.80;;;;;;;7.50;60.98;96526.95;252190;1132;114930;-66
2020/12/29 08:06:18;;;;;;;1.67;0.90;;;;;;;7.47;61.60;96538.67;251988;1132;114876;-66
2020/12/29 08:11:22;;;;;;;4.47;1.40;;;;;;;7.45;62.00;96550.36;251990;1132;114763;-66
2020/12/29 08:16:24;;;;;;;2.40;1.27;;;;;;;7.46;61.33;96568.73;251969;1133;114562;-68
2020/12/29 08:21:28;;;;;;;2.83;1.53;;;;;;;7.49;61.89;96594.09;251911;1133;115342;-65
2020/12/29 08:26:31;;;;;;;3.05;1.62;;;;;;;7.54;61.43;96613.89;252121;1133;114811;-68
2020/12/29 08:31:36;;;;;;;1.60;1.13;;;;;;;7.61;61.07;96640.66;252086;1135;115107;-67
2020/12/29 08:36:43;;;;;;;2.87;1.07;;;;;;;7.69;61.82;96627.56;251838;1132;114655;-66
2020/12/29 08:41:53;;;;;;;1.43;0.97;;;;;;;7.77;60.40;96648.88;252055;1133;114607;-66
2020/12/29 08:46:56;;;;;;;2.30;1.23;;;;;;;7.82;60.85;96654.63;251770;1137;114854;-66
2020/12/29 08:51:58;;;;;;;2.67;0.90;;;;;;;7.87;60.54;96667.44;252038;1133;114605;-66
2020/12/29 08:57:01;;;;;;;2.97;1.10;;;;;;;7.96;60.16;96701.05;251890;1134;115014;-66
2020/12/29 09:02:04;;;;;;;5.93;1.60;;;;;;;7.99;59.21;96698.13;251819;1133;114632;-65
2020/12/29 09:07:12;;;;;;;3.97;1.33;;;;;;;8.03;59.54;96720.72;251821;1132;114760;-65
2020/12/29 09:12:17;;;;;;;1.73;1.33;;;;;;;8.08;59.34;96717.65;251926;1134;116295;-65
2020/12/29 09:17:20;;;;;;;4.75;1.37;;;;;;;8.13;58.44;96726.04;251346;1135;114623;-67
2020/12/29 09:22:23;;;;;;;2.77;1.57;;;;;;;8.13;58.60;96741.93;247978;1134;114903;-66
2020/12/29 09:27:33;;;;;;;2.70;1.43;;;;;;;8.19;58.09;96764.41;251938;1132;114810;-65
2020/12/29 09:32:36;;;;;;;4.10;1.80;;;;;;;8.22;57.71;96769.40;251758;1133;114217;-66
2020/12/29 09:37:43;;;;;;;3.40;1.50;;;;;;;8.26;56.97;96786.73;251599;1132;115642;-64
2020/12/29 09:42:46;;;;;;;1.77;1.30;;;;;;;8.28;57.39;96790.89;252004;1133;114628;-62
2020/12/29 09:47:49;;;;;;;6.27;1.60;;;;;;;8.34;56.91;96794.81;251915;1133;114326;-65
2020/12/29 09:52:51;;;;;;;2.17;1.50;;;;;;;8.42;56.74;96805.59;251796;1132;114588;-65
2020/12/29 09:57:54;;;;;;;3.10;1.20;;;;;;;8.51;56.26;96825.98;250772;1132;114916;-64
2020/12/29 10:02:58;;;;;;;2.10;1.43;;;;;;;8.58;56.17;96823.63;251788;1133;114720;-65
2020/12/29 10:08:01;;;;;;;4.05;1.42;;;;;;;8.66;55.90;96825.58;251917;1132;114638;-67
2020/12/29 10:13:03;;;;;;;1.73;1.27;;;;;;;8.69;55.49;96847.36;252011;1134;115090;-65
2020/12/29 10:18:05;;;;;;;3.70;1.00;;;;;;;8.78;55.25;96855.48;251609;1135;114973;-68
2020/12/29 10:23:08;;;;;;;3.53;1.40;;;;;;;8.83;55.22;96867.36;249043;1132;115119;-65
2020/12/29 10:28:10;;;;;;;2.57;1.20;;;;;;;8.93;54.83;96867.34;250567;1133;114897;-69
2020/12/29 10:33:13;;;;;;;3.10;1.40;;;;;;;9.10;54.65;96877.27;251827;1141;114815;-64
2020/12/29 10:38:15;;;;;;;1.73;1.20;;;;;;;9.26;54.46;96879.37;251808;1135;114727;-66
2020/12/29 10:43:18;;;;;;;5.67;1.27;;;;;;;9.47;54.74;96895.97;251849;1134;114972;-64
2020/12/29 10:48:20;;;;;;;3.07;1.47;;;;;;;9.54;53.98;96896.25;251865;1132;114604;-63
2020/12/29 10:53:22;;;;;;;6.30;1.27;;;;;;;9.50;53.02;96910.79;251878;1133;114557;-67
2020/12/29 10:58:27;;;;;;;7.03;1.30;;;;;;;9.54;53.29;96919.31;252023;1135;114481;-67
2020/12/29 11:03:30;;;;;;;4.57;1.20;;;;;;;9.58;53.02;96905.63;252026;1134;115066;-67
2020/12/29 11:08:33;;;;;;;2.27;1.20;;;;;;;9.60;52.41;96916.93;251763;1132;114725;-68
2020/12/29 11:13:36;;;;;;;3.13;1.07;;;;;;;9.60;52.36;96929.37;251849;1133;114785;-66
2020/12/29 11:18:38;;;;;;;3.70;1.00;;;;;;;9.69;52.80;96933.84;252085;1134;115776;-67
2020/12/29 11:23:41;;;;;;;4.05;1.30;;;;;;;9.75;52.19;96948.36;251901;1136;114846;-65
2020/12/29 11:28:44;;;;;;;3.37;0.90;;;;;;;9.78;51.64;96953.39;251974;1135;114740;-66
2020/12/29 11:33:47;;;;;;;5.77;1.00;;;;;;;9.82;51.87;96960.95;252025;1134;114866;-63
2020/12/29 11:38:50;;;;;;;4.70;1.07;;;;;;;9.88;51.28;96954.21;251855;1137;115088;-64
2020/12/29 11:43:52;;;;;;;3.70;1.03;;;;;;;9.92;50.83;96968.92;251872;1134;114827;-65
2020/12/29 11:48:54;;;;;;;3.35;1.12;;;;;;;9.95;51.15;96980.09;251977;1134;114500;-67
2020/12/29 11:53:56;;;;;;;5.65;1.40;;;;;;;10.01;50.70;96977.84;251988;1136;114483;-66
2020/12/29 11:58:59;;;;;;;6.93;1.30;;;;;;;10.11;50.70;97002.58;252118;1132;115849;-65
2020/12/29 12:04:01;;;;;;;5.80;1.20;;;;;;;10.17;50.51;97013.48;251852;1132;115105;-67
2020/12/29 12:09:04;;;;;;;4.43;0.80;;;;;;;10.28;50.39;97006.36;251967;1135;114559;-65
2020/12/29 12:14:07;;;;;;;3.72;1.17;;;;;;;10.30;49.82;97007.89;251931;1133;114906;-66
2020/12/29 12:19:09;;;;;;;1.87;0.83;;;;;;;10.33;50.01;97010.27;251963;1133;114989;-65
2020/12/29 12:24:12;;;;;;;2.20;1.23;;;;;;;10.38;49.76;97025.78;252052;1132;115010;-65
2020/12/29 12:29:40;;;;;;;3.40;1.07;;;;;;;10.39;50.16;97032.77;252045;1133;115769;-70
2020/12/29 12:34:48;;;;;;;9.10;1.90;;;;;;;10.44;49.63;97037.67;251829;1134;116156;-68
2020/12/29 12:39:50;;;;;;;3.23;1.40;;;;;;;10.51;49.84;97036.95;252058;1132;115501;-68
2020/12/29 12:44:53;;;;;;;2.27;1.50;;;;;;;10.63;49.65;97045.58;251779;1134;115083;-66
2020/12/29 12:49:56;;;;;;;3.17;1.40;;;;;;;10.82;49.51;97055.33;252008;1133;114929;-67
2020/12/29 12:54:58;;;;;;;4.83;1.67;;;;;;;10.94;49.97;97071.94;251889;1134;115619;-67
2020/12/29 13:00:02;;;;;;;9.90;1.67;;;;;;;10.97;49.77;97075.18;252022;1134;114870;-67
2020/12/29 13:05:05;;;;;;;5.60;1.37;;;;;;;10.97;49.07;97080.50;251760;1132;115196;-64
2020/12/29 13:10:07;;;;;;;5.33;1.77;;;;;;;10.91;48.95;97099.70;251073;1134;114929;-67
2020/12/29 13:15:10;;;;;;;5.00;1.80;;;;;;;10.87;49.14;97100.98;251993;1135;114912;-68
2020/12/29 13:20:15;;;;;;;3.87;1.30;;;;;;;10.87;48.36;97123.11;252070;1132;115295;-72
2020/12/29 13:25:41;;;;;;;2.23;1.27;;;;;;;10.78;48.40;97113.32;251629;1134;114864;-72
2020/12/29 13:31:12;;;;;;;2.12;1.20;;;;;;;10.69;47.85;97132.80;252028;1132;114569;-71
2020/12/29 13:36:42;;;;;;;2.33;1.37;;;;;;;10.55;47.27;97141.22;251847;1134;115976;-73
2020/12/29 13:42:14;;;;;;;2.07;1.27;;;;;;;10.46;47.79;97153.56;252017;1132;115302;-71
2020/12/29 13:47:17;;;;;;;4.43;1.30;;;;;;;10.36;47.61;97166.86;251858;1132;115078;-70
2020/12/29 13:52:20;;;;;;;4.50;1.63;;;;;;;10.26;47.84;97189.08;251628;1133;115283;-68
2020/12/29 13:57:26;;;;;;;2.53;1.43;;;;;;;10.15;47.36;97196.17;250886;1132;115948;-70
2020/12/29 14:02:36;;;;;;;2.40;1.30;;;;;;;10.04;47.84;97201.62;251433;1132;116291;-70
2020/12/29 14:07:43;;;;;;;6.40;1.33;;;;;;;9.94;47.42;97225.51;251754;1133;115558;-69
2020/12/29 14:12:51;;;;;;;6.70;1.97;;;;;;;9.85;47.69;97225.48;251976;1133;115437;-69
2020/12/29 14:17:56;;;;;;;2.90;1.47;;;;;;;9.79;47.70;97252.61;251936;1132;115061;-70
2020/12/29 14:22:59;;;;;;;2.87;1.50;;;;;;;9.76;47.63;97248.39;251835;1132;114968;-69
2020/12/29 14:28:05;;;;;;;2.80;1.47;;;;;;;9.68;47.76;97259.70;251959;1133;114667;-70
2020/12/29 14:33:07;;;;;;;4.35;1.50;;;;;;;9.66;48.05;97271.42;252057;1134;114900;-69
2020/12/29 14:38:13;;;;;;;4.78;1.50;;;;;;;9.62;48.44;97270.84;252016;1132;114877;-72
2020/12/29 14:43:20;;;;;;;2.60;1.40;;;;;;;9.57;48.00;97269.55;251895;1132;117423;-70
2020/12/29 14:48:22;;;;;;;6.35;1.75;;;;;;;9.51;48.16;97268.28;251968;1133;114441;-64
2020/12/29 14:53:24;;;;;;;5.43;1.60;;;;;;;9.48;48.37;97266.73;251636;1134;115029;-63
2020/12/29 14:58:27;;;;;;;7.67;1.90;;;;;;;9.40;48.26;97263.88;251148;1134;114828;-63
2020/12/29 15:03:29;;;;;;;7.47;2.33;;;;;;;9.36;48.57;97266.94;251926;1135;114862;-66
2020/12/29 15:08:32;;;;;;;5.77;1.90;;;;;;;9.35;48.71;97265.27;251907;1134;114994;-65
2020/12/29 15:13:34;;;;;;;5.97;1.80;;;;;;;9.29;48.42;97265.78;251869;1132;114481;-65
2020/12/29 15:18:37;;;;;;;10.20;2.10;;;;;;;9.27;48.78;97260.58;251728;1133;114516;-65
2020/12/29 15:23:40;;;;;;;5.67;1.80;;;;;;;9.28;48.78;97261.45;250535;1132;114756;-66
2020/12/29 15:28:43;;;;;;;3.80;2.03;;;;;;;9.29;49.01;97276.39;251921;1132;115156;-68
2020/12/29 15:33:45;;;;;;;8.00;2.17;;;;;;;9.30;48.89;97273.59;250453;1134;114863;-66
2020/12/29 15:38:48;;;;;;;5.58;1.85;;;;;;;9.30;49.20;97270.94;252046;1135;114210;-67
2020/12/29 15:43:51;;;;;;;9.57;1.77;;;;;;;9.31;48.87;97274.47;250531;1135;114776;-67
2020/12/29 15:48:53;;;;;;;4.03;1.93;;;;;;;9.31;49.04;97277.12;252050;1135;114830;-68
2020/12/29 15:53:58;;;;;;;9.45;2.35;;;;;;;9.29;49.01;97276.39;250184;1134;114746;-68
2020/12/29 16:04:51;;;;;;;7.23;2.60;;;;;;;9.32;49.22;97294.72;249795;1134;114686;-71
2020/12/29 16:10:01;;;;;;;7.37;2.40;;;;;;;9.33;49.34;97312.32;251711;1134;114616;-73
2020/12/29 16:15:09;;;;;;;9.97;2.60;;;;;;;9.32;48.99;97331.88;252006;1133;114635;-73
2020/12/29 16:20:25;;;;;;;9.73;3.20;;;;;;;9.20;49.76;97339.92;251704;1132;114293;-75
2020/12/29 16:25:29;;;;;;;13.50;3.33;;;;;;;9.05;49.48;97338.52;251815;1134;115799;-73
2020/12/29 16:30:38;;;;;;;17.75;3.40;;;;;;;8.88;49.51;97350.53;251841;1134;114807;-74
2020/12/29 16:35:57;;;;;;;45.17;6.03;;;;;;;8.80;49.71;97352.12;251490;1134;115562;-75
2020/12/29 16:41:31;;;;;;;30.90;5.63;;;;;;;8.67;50.07;97360.25;251407;1135;114964;-74
2020/12/29 16:46:51;;;;;;;;;;;;;;;;;;;;;
2020/12/29 16:52:01;;;;;;;40.97;5.60;;;;;;;8.39;50.31;97373.09;251941;1133;115570;-74
2020/12/29 16:57:32;;;;;;;15.65;4.60;;;;;;;8.25;50.75;97374.16;251975;1133;115111;-73
2020/12/29 17:02:36;;;;;;;12.90;4.27;;;;;;;8.21;50.41;97391.23;251716;1132;115920;-75
2020/12/29 17:07:44;;;;;;;28.57;6.20;;;;;;;8.22;50.72;97384.13;251811;1132;114883;-75
2020/12/29 17:13:01;;;;;;;23.60;5.13;;;;;;;8.11;51.42;97389.44;251655;1132;114606;-75
2020/12/29 17:18:32;;;;;;;31.43;6.50;;;;;;;8.02;51.56;97404.27;249498;1132;114955;-76
2020/12/29 17:23:40;;;;;;;19.17;5.22;;;;;;;7.92;51.87;97414.73;251659;1132;114983;-75
2020/12/29 17:28:43;;;;;;;24.57;6.00;;;;;;;7.86;51.99;97420.49;246275;1133;114609;-74
2020/12/29 17:33:53;;;;;;;21.13;5.40;;;;;;;7.86;52.12;97438.19;251694;1132;115163;-75
2020/12/29 17:39:16;;;;;;;26.50;5.97;;;;;;;7.90;52.71;97439.64;249984;1132;115583;-75
2020/12/29 17:44:24;;;;;;;23.43;6.33;;;;;;;7.88;52.49;97447.72;251964;1133;114966;-75
2020/12/29 17:49:49;;;;;;;31.37;6.87;;;;;;;7.83;52.57;97458.64;251448;1133;114883;-77
2020/12/29 17:55:12;;;;;;;23.00;7.27;;;;;;;7.78;52.72;97478.51;251828;1132;114941;-76
2020/12/29 18:01:25;;;;;;;16.67;6.17;;;;;;;7.68;53.02;97488.11;250334;1136;114652;-76
2020/12/29 18:07:09;;;;;;;20.93;6.03;;;;;;;7.56;52.80;97508.38;249144;1135;115463;-74
2020/12/29 18:12:21;;;;;;;17.30;5.70;;;;;;;7.45;53.79;97516.28;250934;1135;114605;-73
2020/12/29 18:17:37;;;;;;;19.27;6.42;;;;;;;7.36;54.13;97525.73;251763;1133;115154;-73
2020/12/29 18:22:42;;;;;;;22.17;6.30;;;;;;;7.28;53.62;97539.53;251824;1132;114646;-74
2020/12/29 18:28:17;;;;;;;23.27;6.37;;;;;;;7.19;53.44;97541.99;252040;1133;115527;-74
2020/12/29 18:33:49;;;;;;;23.10;6.40;;;;;;;7.10;53.87;97554.10;251876;1132;115990;-73
2020/12/29 18:38:57;;;;;;;17.87;7.23;;;;;;;7.02;54.19;97559.92;251899;1133;114399;-67
2020/12/29 18:43:59;;;;;;;22.48;8.23;;;;;;;6.94;54.37;97570.20;251978;1133;115394;-69
2020/12/29 18:49:03;;;;;;;27.70;10.17;;;;;;;7.02;54.64;97574.95;251926;1133;115016;-68
2020/12/29 18:54:06;;;;;;;25.20;10.63;;;;;;;6.97;55.21;97579.73;251801;1134;114901;-68
2020/12/29 18:59:09;;;;;;;32.17;11.77;;;;;;;6.89;54.42;97598.77;251883;1132;115812;-67
2020/12/29 19:04:12;;;;;;;32.20;10.83;;;;;;;6.82;54.85;97603.63;251732;1132;114938;-68
2020/12/29 19:09:14;;;;;;;29.90;10.93;;;;;;;6.75;54.79;97598.89;252099;1133;114944;-68
2020/12/29 19:14:18;;;;;;;12.83;5.63;;;;;;;6.83;55.33;97612.44;251975;1133;115036;-68
2020/12/29 19:19:20;;;;;;;18.00;7.63;;;;;;;7.06;56.44;97624.86;251955;1134;114818;-66
2020/12/29 19:24:24;;;;;;;22.57;7.97;;;;;;;7.22;55.32;97631.73;251610;1135;114677;-67
2020/12/29 19:29:26;;;;;;;18.27;7.93;;;;;;;7.23;56.00;97634.25;251946;1133;114729;-67
2020/12/29 19:34:30;;;;;;;20.50;6.95;;;;;;;7.24;55.08;97654.48;252026;1135;115307;-68
2020/12/29 19:39:35;;;;;;;8.75;3.92;;;;;;;7.45;56.38;97652.11;251574;1133;114600;-68
2020/12/29 19:44:49;;;;;;;6.43;2.57;;;;;;;7.76;56.04;97650.73;251897;1133;114508;-69
2020/12/29 19:50:06;;;;;;;6.80;3.00;;;;;;;8.09;56.34;97653.68;251932;1132;115176;-71
2020/12/29 19:55:21;;;;;;;5.17;2.93;;;;;;;8.34;56.42;97652.68;252001;1135;114481;-71
2020/12/29 20:00:44;;;;;;;4.12;2.02;;;;;;;8.53;56.12;97671.58;251848;1135;115492;-71
2020/12/29 20:05:59;;;;;;;5.03;2.17;;;;;;;8.72;56.05;97665.70;251953;1132;114352;-71
2020/12/29 20:11:22;;;;;;;3.70;1.77;;;;;;;8.86;55.85;97673.44;252240;1132;115209;-71
2020/12/29 20:16:37;;;;;;;2.83;1.87;;;;;;;9.01;55.94;97666.13;251813;1134;114603;-71
2020/12/29 20:21:49;;;;;;;3.50;1.93;;;;;;;9.09;56.06;97671.66;251891;1132;115089;-70
2020/12/29 20:27:12;;;;;;;;;;;;;;;;;;;;;
2020/12/29 20:32:29;;;;;;;3.90;2.00;;;;;;;9.23;55.53;97667.92;251802;1133;114237;-70
2020/12/29 20:37:36;;;;;;;2.93;1.67;;;;;;;9.29;55.16;97669.27;249502;1132;114698;-72
2020/12/29 20:42:41;;;;;;;3.80;1.95;;;;;;;9.30;55.39;97665.64;248162;1132;3909526;-70
2020/12/29 20:47:50;;;;;;;3.73;2.00;;;;;;;9.30;55.28;97655.02;251655;1134;114509;-70
2020/12/29 20:52:56;;;;;;;5.15;2.50;;;;;;;9.31;55.25;97672.66;251876;1132;114531;-70
2020/12/29 20:58:19;;;;;;;5.67;2.60;;;;;;;9.29;55.19;97664.80;251826;1132;115301;-69
2020/12/29 21:03:25;;;;;;;3.67;2.00;;;;;;;9.29;55.52;97671.92;251870;1132;115220;-71
2020/12/29 21:08:35;;;;;;;4.70;2.43;;;;;;;9.29;55.48;97678.07;251641;1134;114562;-74
2020/12/29 21:13:50;;;;;;;4.17;2.37;;;;;;;9.29;55.57;97686.03;251854;1134;114829;-68
2020/12/29 21:18:53;;;;;;;4.53;2.47;;;;;;;9.32;55.58;97690.27;251911;1134;114478;-68
2020/12/29 21:23:58;;;;;;;4.13;2.20;;;;;;;9.30;55.15;97686.88;250564;1134;114186;-69
2020/12/29 21:29:00;;;;;;;5.00;2.50;;;;;;;9.30;55.72;97692.18;251760;1135;114590;-69
2020/12/29 21:34:02;;;;;;;4.60;2.40;;;;;;;9.30;55.92;97695.67;251793;1134;114566;-69
2020/12/29 21:39:07;;;;;;;2.77;1.90;;;;;;;9.30;55.75;97703.64;251767;1133;114669;-69
2020/12/29 21:44:10;;;;;;;3.67;1.90;;;;;;;9.24;55.80;97707.64;251798;1133;114601;-69
2020/12/29 21:49:17;;;;;;;3.23;1.87;;;;;;;9.27;55.74;97717.16;250091;1134;114573;-69
2020/12/29 21:54:20;;;;;;;4.57;2.17;;;;;;;9.28;56.15;97723.33;251923;1133;115150;-68
2020/12/29 21:59:22;;;;;;;3.87;2.10;;;;;;;9.30;56.76;97706.30;251818;1133;114586;-67
2020/12/29 22:04:25;;;;;;;5.70;2.53;;;;;;;9.29;55.97;97714.39;251959;1134;114655;-67
2020/12/29 22:09:27;;;;;;;4.85;2.85;;;;;;;9.24;56.10;97726.22;252017;1133;114654;-67
2020/12/29 22:14:30;;;;;;;4.93;2.80;;;;;;;9.22;55.86;97728.14;252033;1135;115060;-68
2020/12/29 22:19:33;;;;;;;5.73;2.60;;;;;;;9.23;56.21;97723.67;252037;1133;114342;-67
2020/12/29 22:24:39;;;;;;;5.30;2.70;;;;;;;9.24;55.52;97728.04;251883;1133;114208;-67
2020/12/29 22:29:41;;;;;;;3.27;1.80;;;;;;;9.19;56.35;97728.38;251704;1132;114828;-68
2020/12/29 22:34:48;;;;;;;3.10;1.37;;;;;;;9.21;56.54;97723.80;251734;1134;114625;-68
2020/12/29 22:39:50;;;;;;;1.80;1.00;;;;;;;9.27;56.46;97718.97;251802;1134;114818;-67
2020/12/29 22:44:53;;;;;;;1.63;0.97;;;;;;;9.32;56.55;97709.69;251839;1134;114175;-68
2020/12/29 22:49:59;;;;;;;1.27;0.80;;;;;;;9.32;57.09;97716.81;251902;1132;114550;-68
2020/12/29 22:55:05;;;;;;;1.30;0.87;;;;;;;9.31;56.78;97704.52;251875;1133;114762;-68
2020/12/29 23:00:11;;;;;;;1.83;0.80;;;;;;;9.28;56.52;97691.48;251085;1132;114735;-68
2020/12/29 23:05:13;;;;;;;1.33;0.73;;;;;;;9.28;56.90;97702.09;251825;1134;114730;-68
2020/12/29 23:10:18;;;;;;;1.20;0.80;;;;;;;9.29;57.37;97709.09;252137;1133;114857;-67
2020/12/29 23:15:20;;;;;;;1.80;0.80;;;;;;;9.33;57.51;97716.67;252072;1133;114471;-68
2020/12/29 23:20:25;;;;;;;1.13;0.70;;;;;;;9.34;57.31;97721.05;251907;1134;114485;-69
2020/12/29 23:25:28;;;;;;;1.80;0.93;;;;;;;9.31;57.39;97712.48;251873;1134;114501;-68
2020/12/29 23:30:30;;;;;;;2.37;0.80;;;;;;;9.29;57.58;97706.43;251792;1134;114707;-68
2020/12/29 23:35:32;;;;;;;1.80;0.80;;;;;;;9.24;57.41;97706.80;251750;1110;115051;-85
2020/12/29 23:40:36;;;;;;;1.60;0.90;;;;;;;9.14;57.60;97701.36;251792;1134;114916;-83
2020/12/29 23:45:38;;;;;;;1.80;0.90;;;;;;;9.06;57.50;97692.29;251630;1133;115376;-84
2020/12/29 23:50:41;;;;;;;0.93;0.70;;;;;;;8.93;57.63;97705.65;251704;1132;114826;-84
2020/12/29 23:55:43;;;;;;;1.83;0.90;;;;;;;8.84;57.85;97685.99;251750;1132;115052;-84
